<?xml version="1.0" encoding="utf-8"?>
<gpx xmlns:xsi="http://www.w3.org/2001/XMLSchema-instance" xmlns:xsd="http://www.w3.org/2001/XMLSchema" version="1.1" creator="Shapelink.com" xmlns="http://www.topografix.com/GPX/1/1" xmlns:gpxtpx="http://www.garmin.com/xmlschemas/TrackPointExtension/v1">
  <metadata>
    <name>Löpning 5.07 km, 2020-07-17</name>
    <desc></desc>
    <author><name>Marian Moron</name></author> 
    <time>2020-07-17T17:56:15Z</time>
  </metadata>
  <trk>
    <name>Löpning 5.07 km, 2020-07-17</name>
    <trkseg>
      <trkpt lat="51.22754" lon="4.497458">
        <ele>3.1</ele>
        <time>2020-07-17T17:56:15Z</time>
      </trkpt>
      <trkpt lat="51.227642" lon="4.497492">
        <ele>3.2</ele>
        <time>2020-07-17T17:56:20Z</time>
      </trkpt>
      <trkpt lat="51.227733" lon="4.497545">
        <ele>3.3</ele>
        <time>2020-07-17T17:56:24Z</time>
      </trkpt>
      <trkpt lat="51.227814" lon="4.497643">
        <ele>3.4</ele>
        <time>2020-07-17T17:56:27Z</time>
      </trkpt>
      <trkpt lat="51.22791" lon="4.497692">
        <ele>3.5</ele>
        <time>2020-07-17T17:56:31Z</time>
      </trkpt>
      <trkpt lat="51.227987" lon="4.49774">
        <ele>3.6</ele>
        <time>2020-07-17T17:56:34Z</time>
      </trkpt>
      <trkpt lat="51.228065" lon="4.497801">
        <ele>3.7</ele>
        <time>2020-07-17T17:56:37Z</time>
      </trkpt>
      <trkpt lat="51.228167" lon="4.497832">
        <ele>3.7</ele>
        <time>2020-07-17T17:56:41Z</time>
      </trkpt>
      <trkpt lat="51.228254" lon="4.497873">
        <ele>3.7</ele>
        <time>2020-07-17T17:56:44Z</time>
      </trkpt>
      <trkpt lat="51.228347" lon="4.497931">
        <ele>3.6</ele>
        <time>2020-07-17T17:56:47Z</time>
      </trkpt>
      <trkpt lat="51.228447" lon="4.49798">
        <ele>3.5</ele>
        <time>2020-07-17T17:56:49Z</time>
      </trkpt>
      <trkpt lat="51.228528" lon="4.498074">
        <ele>3.5</ele>
        <time>2020-07-17T17:56:52Z</time>
      </trkpt>
      <trkpt lat="51.22861" lon="4.498132">
        <ele>3.4</ele>
        <time>2020-07-17T17:56:56Z</time>
      </trkpt>
      <trkpt lat="51.228692" lon="4.498202">
        <ele>3.3</ele>
        <time>2020-07-17T17:57:01Z</time>
      </trkpt>
      <trkpt lat="51.22877" lon="4.498246">
        <ele>3.3</ele>
        <time>2020-07-17T17:57:04Z</time>
      </trkpt>
      <trkpt lat="51.228852" lon="4.498309">
        <ele>3.4</ele>
        <time>2020-07-17T17:57:07Z</time>
      </trkpt>
      <trkpt lat="51.228931" lon="4.498385">
        <ele>3.5</ele>
        <time>2020-07-17T17:57:11Z</time>
      </trkpt>
      <trkpt lat="51.229013" lon="4.498455">
        <ele>3.9</ele>
        <time>2020-07-17T17:57:15Z</time>
      </trkpt>
      <trkpt lat="51.229083" lon="4.498521">
        <ele>4.3</ele>
        <time>2020-07-17T17:57:17Z</time>
      </trkpt>
      <trkpt lat="51.229174" lon="4.498622">
        <ele>4.6</ele>
        <time>2020-07-17T17:57:20Z</time>
      </trkpt>
      <trkpt lat="51.229253" lon="4.498688">
        <ele>4.9</ele>
        <time>2020-07-17T17:57:23Z</time>
      </trkpt>
      <trkpt lat="51.229327" lon="4.498765">
        <ele>5.2</ele>
        <time>2020-07-17T17:57:27Z</time>
      </trkpt>
      <trkpt lat="51.229416" lon="4.498849">
        <ele>5.4</ele>
        <time>2020-07-17T17:57:30Z</time>
      </trkpt>
      <trkpt lat="51.229512" lon="4.49897">
        <ele>5.5</ele>
        <time>2020-07-17T17:57:32Z</time>
      </trkpt>
      <trkpt lat="51.229602" lon="4.499077">
        <ele>5.7</ele>
        <time>2020-07-17T17:57:34Z</time>
      </trkpt>
      <trkpt lat="51.229693" lon="4.499157">
        <ele>5.8</ele>
        <time>2020-07-17T17:57:36Z</time>
      </trkpt>
      <trkpt lat="51.22975" lon="4.499264">
        <ele>5.8</ele>
        <time>2020-07-17T17:57:44Z</time>
      </trkpt>
      <trkpt lat="51.229826" lon="4.499413">
        <ele>5.8</ele>
        <time>2020-07-17T17:57:48Z</time>
      </trkpt>
      <trkpt lat="51.229905" lon="4.49953">
        <ele>5.7</ele>
        <time>2020-07-17T17:57:51Z</time>
      </trkpt>
      <trkpt lat="51.229991" lon="4.49964">
        <ele>5.7</ele>
        <time>2020-07-17T17:57:54Z</time>
      </trkpt>
      <trkpt lat="51.230081" lon="4.499766">
        <ele>5.7</ele>
        <time>2020-07-17T17:57:57Z</time>
      </trkpt>
      <trkpt lat="51.230141" lon="4.49986">
        <ele>5.8</ele>
        <time>2020-07-17T17:57:59Z</time>
      </trkpt>
      <trkpt lat="51.230212" lon="4.499976">
        <ele>5.9</ele>
        <time>2020-07-17T17:58:02Z</time>
      </trkpt>
      <trkpt lat="51.230279" lon="4.500072">
        <ele>6.2</ele>
        <time>2020-07-17T17:58:07Z</time>
      </trkpt>
      <trkpt lat="51.230358" lon="4.5002">
        <ele>6.4</ele>
        <time>2020-07-17T17:58:12Z</time>
      </trkpt>
      <trkpt lat="51.230436" lon="4.500285">
        <ele>6.5</ele>
        <time>2020-07-17T17:58:15Z</time>
      </trkpt>
      <trkpt lat="51.230508" lon="4.500363">
        <ele>6.7</ele>
        <time>2020-07-17T17:58:18Z</time>
      </trkpt>
      <trkpt lat="51.23059" lon="4.500384">
        <ele>6.9</ele>
        <time>2020-07-17T17:58:19Z</time>
      </trkpt>
      <trkpt lat="51.230636" lon="4.500521">
        <ele>7</ele>
        <time>2020-07-17T17:58:24Z</time>
      </trkpt>
      <trkpt lat="51.23072" lon="4.500661">
        <ele>7.1</ele>
        <time>2020-07-17T17:58:27Z</time>
      </trkpt>
      <trkpt lat="51.23079" lon="4.500767">
        <ele>7.1</ele>
        <time>2020-07-17T17:58:30Z</time>
      </trkpt>
      <trkpt lat="51.230859" lon="4.500888">
        <ele>7.1</ele>
        <time>2020-07-17T17:58:34Z</time>
      </trkpt>
      <trkpt lat="51.230953" lon="4.500959">
        <ele>7.1</ele>
        <time>2020-07-17T17:58:37Z</time>
      </trkpt>
      <trkpt lat="51.231005" lon="4.501095">
        <ele>7.1</ele>
        <time>2020-07-17T17:58:41Z</time>
      </trkpt>
      <trkpt lat="51.231017" lon="4.50125">
        <ele>7.1</ele>
        <time>2020-07-17T17:58:44Z</time>
      </trkpt>
      <trkpt lat="51.23105" lon="4.501384">
        <ele>7.2</ele>
        <time>2020-07-17T17:58:47Z</time>
      </trkpt>
      <trkpt lat="51.231116" lon="4.501491">
        <ele>7.3</ele>
        <time>2020-07-17T17:58:50Z</time>
      </trkpt>
      <trkpt lat="51.231176" lon="4.501583">
        <ele>7.4</ele>
        <time>2020-07-17T17:58:53Z</time>
      </trkpt>
      <trkpt lat="51.231248" lon="4.501693">
        <ele>7.5</ele>
        <time>2020-07-17T17:58:57Z</time>
      </trkpt>
      <trkpt lat="51.231311" lon="4.501817">
        <ele>7.5</ele>
        <time>2020-07-17T17:59:00Z</time>
      </trkpt>
      <trkpt lat="51.231352" lon="4.501936">
        <ele>7.6</ele>
        <time>2020-07-17T17:59:03Z</time>
      </trkpt>
      <trkpt lat="51.23141" lon="4.502079">
        <ele>7.7</ele>
        <time>2020-07-17T17:59:06Z</time>
      </trkpt>
      <trkpt lat="51.231514" lon="4.502112">
        <ele>7.7</ele>
        <time>2020-07-17T17:59:09Z</time>
      </trkpt>
      <trkpt lat="51.23163" lon="4.502133">
        <ele>7.7</ele>
        <time>2020-07-17T17:59:12Z</time>
      </trkpt>
      <trkpt lat="51.231689" lon="4.502256">
        <ele>7.7</ele>
        <time>2020-07-17T17:59:16Z</time>
      </trkpt>
      <trkpt lat="51.231697" lon="4.502401">
        <ele>7.6</ele>
        <time>2020-07-17T17:59:19Z</time>
      </trkpt>
      <trkpt lat="51.231723" lon="4.502543">
        <ele>7.5</ele>
        <time>2020-07-17T17:59:22Z</time>
      </trkpt>
      <trkpt lat="51.231774" lon="4.502693">
        <ele>7.5</ele>
        <time>2020-07-17T17:59:25Z</time>
      </trkpt>
      <trkpt lat="51.231817" lon="4.502829">
        <ele>7.4</ele>
        <time>2020-07-17T17:59:28Z</time>
      </trkpt>
      <trkpt lat="51.231843" lon="4.502991">
        <ele>7.3</ele>
        <time>2020-07-17T17:59:31Z</time>
      </trkpt>
      <trkpt lat="51.231847" lon="4.503153">
        <ele>7.2</ele>
        <time>2020-07-17T17:59:34Z</time>
      </trkpt>
      <trkpt lat="51.231866" lon="4.503322">
        <ele>7.1</ele>
        <time>2020-07-17T17:59:39Z</time>
      </trkpt>
      <trkpt lat="51.231879" lon="4.503451">
        <ele>7</ele>
        <time>2020-07-17T17:59:43Z</time>
      </trkpt>
      <trkpt lat="51.23192" lon="4.503572">
        <ele>7</ele>
        <time>2020-07-17T17:59:47Z</time>
      </trkpt>
      <trkpt lat="51.231988" lon="4.503703">
        <ele>7</ele>
        <time>2020-07-17T17:59:50Z</time>
      </trkpt>
      <trkpt lat="51.232044" lon="4.5038">
        <ele>7</ele>
        <time>2020-07-17T17:59:52Z</time>
      </trkpt>
      <trkpt lat="51.232129" lon="4.503901">
        <ele>7</ele>
        <time>2020-07-17T17:59:55Z</time>
      </trkpt>
      <trkpt lat="51.232129" lon="4.503901">
        <ele>7</ele>
        <time>2020-07-17T17:59:56Z</time>
      </trkpt>
      <trkpt lat="51.232127" lon="4.503989">
        <ele>9</ele>
        <time>2020-07-17T18:01:17Z</time>
      </trkpt>
      <trkpt lat="51.232149" lon="4.504058">
        <ele>9.4</ele>
        <time>2020-07-17T18:01:19Z</time>
      </trkpt>
      <trkpt lat="51.23225" lon="4.504116">
        <ele>9.8</ele>
        <time>2020-07-17T18:01:23Z</time>
      </trkpt>
      <trkpt lat="51.232346" lon="4.504048">
        <ele>10</ele>
        <time>2020-07-17T18:01:26Z</time>
      </trkpt>
      <trkpt lat="51.232424" lon="4.503965">
        <ele>10.2</ele>
        <time>2020-07-17T18:01:29Z</time>
      </trkpt>
      <trkpt lat="51.232511" lon="4.503935">
        <ele>10.4</ele>
        <time>2020-07-17T18:01:33Z</time>
      </trkpt>
      <trkpt lat="51.232601" lon="4.504059">
        <ele>10.8</ele>
        <time>2020-07-17T18:01:37Z</time>
      </trkpt>
      <trkpt lat="51.23269" lon="4.504126">
        <ele>11.2</ele>
        <time>2020-07-17T18:01:40Z</time>
      </trkpt>
      <trkpt lat="51.232783" lon="4.504183">
        <ele>11.4</ele>
        <time>2020-07-17T18:01:43Z</time>
      </trkpt>
      <trkpt lat="51.232886" lon="4.504215">
        <ele>11.5</ele>
        <time>2020-07-17T18:01:46Z</time>
      </trkpt>
      <trkpt lat="51.232986" lon="4.504269">
        <ele>11.4</ele>
        <time>2020-07-17T18:01:49Z</time>
      </trkpt>
      <trkpt lat="51.233067" lon="4.504321">
        <ele>11.1</ele>
        <time>2020-07-17T18:01:51Z</time>
      </trkpt>
      <trkpt lat="51.233139" lon="4.504378">
        <ele>10.8</ele>
        <time>2020-07-17T18:01:53Z</time>
      </trkpt>
      <trkpt lat="51.233224" lon="4.504455">
        <ele>10.5</ele>
        <time>2020-07-17T18:01:57Z</time>
      </trkpt>
      <trkpt lat="51.233244" lon="4.504633">
        <ele>10.2</ele>
        <time>2020-07-17T18:02:00Z</time>
      </trkpt>
      <trkpt lat="51.23323" lon="4.504791">
        <ele>9.8</ele>
        <time>2020-07-17T18:02:03Z</time>
      </trkpt>
      <trkpt lat="51.233216" lon="4.504963">
        <ele>9.5</ele>
        <time>2020-07-17T18:02:06Z</time>
      </trkpt>
      <trkpt lat="51.233217" lon="4.5051">
        <ele>9.1</ele>
        <time>2020-07-17T18:02:09Z</time>
      </trkpt>
      <trkpt lat="51.233224" lon="4.505262">
        <ele>8.8</ele>
        <time>2020-07-17T18:02:13Z</time>
      </trkpt>
      <trkpt lat="51.23321" lon="4.50542">
        <ele>8.6</ele>
        <time>2020-07-17T18:02:17Z</time>
      </trkpt>
      <trkpt lat="51.233216" lon="4.505569">
        <ele>8.5</ele>
        <time>2020-07-17T18:02:20Z</time>
      </trkpt>
      <trkpt lat="51.233233" lon="4.50573">
        <ele>8.3</ele>
        <time>2020-07-17T18:02:23Z</time>
      </trkpt>
      <trkpt lat="51.233249" lon="4.505885">
        <ele>8.1</ele>
        <time>2020-07-17T18:02:26Z</time>
      </trkpt>
      <trkpt lat="51.233259" lon="4.506028">
        <ele>7.9</ele>
        <time>2020-07-17T18:02:29Z</time>
      </trkpt>
      <trkpt lat="51.233261" lon="4.506158">
        <ele>7.7</ele>
        <time>2020-07-17T18:02:32Z</time>
      </trkpt>
      <trkpt lat="51.233269" lon="4.506304">
        <ele>7.5</ele>
        <time>2020-07-17T18:02:36Z</time>
      </trkpt>
      <trkpt lat="51.233285" lon="4.506476">
        <ele>7.4</ele>
        <time>2020-07-17T18:02:40Z</time>
      </trkpt>
      <trkpt lat="51.233311" lon="4.506626">
        <ele>7.2</ele>
        <time>2020-07-17T18:02:44Z</time>
      </trkpt>
      <trkpt lat="51.233323" lon="4.506792">
        <ele>7</ele>
        <time>2020-07-17T18:02:47Z</time>
      </trkpt>
      <trkpt lat="51.233331" lon="4.506963">
        <ele>6.8</ele>
        <time>2020-07-17T18:02:51Z</time>
      </trkpt>
      <trkpt lat="51.233315" lon="4.507099">
        <ele>6.6</ele>
        <time>2020-07-17T18:02:55Z</time>
      </trkpt>
      <trkpt lat="51.23334" lon="4.507252">
        <ele>6.5</ele>
        <time>2020-07-17T18:03:00Z</time>
      </trkpt>
      <trkpt lat="51.233366" lon="4.507384">
        <ele>6.3</ele>
        <time>2020-07-17T18:03:04Z</time>
      </trkpt>
      <trkpt lat="51.233362" lon="4.507556">
        <ele>6.1</ele>
        <time>2020-07-17T18:03:09Z</time>
      </trkpt>
      <trkpt lat="51.233388" lon="4.507688">
        <ele>6</ele>
        <time>2020-07-17T18:03:12Z</time>
      </trkpt>
      <trkpt lat="51.233415" lon="4.507835">
        <ele>5.9</ele>
        <time>2020-07-17T18:03:16Z</time>
      </trkpt>
      <trkpt lat="51.233446" lon="4.507992">
        <ele>5.9</ele>
        <time>2020-07-17T18:03:20Z</time>
      </trkpt>
      <trkpt lat="51.233471" lon="4.508147">
        <ele>6</ele>
        <time>2020-07-17T18:03:23Z</time>
      </trkpt>
      <trkpt lat="51.2335" lon="4.508273">
        <ele>6.1</ele>
        <time>2020-07-17T18:03:26Z</time>
      </trkpt>
      <trkpt lat="51.233449" lon="4.50839">
        <ele>6.2</ele>
        <time>2020-07-17T18:03:30Z</time>
      </trkpt>
      <trkpt lat="51.233338" lon="4.508386">
        <ele>6.2</ele>
        <time>2020-07-17T18:03:33Z</time>
      </trkpt>
      <trkpt lat="51.233218" lon="4.508422">
        <ele>6.2</ele>
        <time>2020-07-17T18:03:36Z</time>
      </trkpt>
      <trkpt lat="51.233144" lon="4.508492">
        <ele>6.2</ele>
        <time>2020-07-17T18:03:39Z</time>
      </trkpt>
      <trkpt lat="51.233082" lon="4.508611">
        <ele>6.2</ele>
        <time>2020-07-17T18:03:43Z</time>
      </trkpt>
      <trkpt lat="51.233032" lon="4.508752">
        <ele>6.3</ele>
        <time>2020-07-17T18:03:48Z</time>
      </trkpt>
      <trkpt lat="51.233069" lon="4.50891">
        <ele>6.3</ele>
        <time>2020-07-17T18:03:51Z</time>
      </trkpt>
      <trkpt lat="51.23311" lon="4.509069">
        <ele>6.3</ele>
        <time>2020-07-17T18:03:54Z</time>
      </trkpt>
      <trkpt lat="51.233166" lon="4.509167">
        <ele>6.3</ele>
        <time>2020-07-17T18:03:56Z</time>
      </trkpt>
      <trkpt lat="51.233235" lon="4.509255">
        <ele>6.3</ele>
        <time>2020-07-17T18:03:58Z</time>
      </trkpt>
      <trkpt lat="51.233288" lon="4.509385">
        <ele>6.3</ele>
        <time>2020-07-17T18:04:02Z</time>
      </trkpt>
      <trkpt lat="51.233302" lon="4.50953">
        <ele>6.3</ele>
        <time>2020-07-17T18:04:06Z</time>
      </trkpt>
      <trkpt lat="51.233321" lon="4.509683">
        <ele>6.4</ele>
        <time>2020-07-17T18:04:10Z</time>
      </trkpt>
      <trkpt lat="51.233349" lon="4.50982">
        <ele>6.4</ele>
        <time>2020-07-17T18:04:14Z</time>
      </trkpt>
      <trkpt lat="51.23337" lon="4.50995">
        <ele>6.4</ele>
        <time>2020-07-17T18:04:18Z</time>
      </trkpt>
      <trkpt lat="51.233361" lon="4.510082">
        <ele>6.4</ele>
        <time>2020-07-17T18:04:23Z</time>
      </trkpt>
      <trkpt lat="51.233389" lon="4.510215">
        <ele>6.4</ele>
        <time>2020-07-17T18:04:27Z</time>
      </trkpt>
      <trkpt lat="51.233401" lon="4.510346">
        <ele>6.5</ele>
        <time>2020-07-17T18:04:31Z</time>
      </trkpt>
      <trkpt lat="51.233416" lon="4.510476">
        <ele>6.5</ele>
        <time>2020-07-17T18:04:34Z</time>
      </trkpt>
      <trkpt lat="51.233431" lon="4.510643">
        <ele>6.6</ele>
        <time>2020-07-17T18:04:37Z</time>
      </trkpt>
      <trkpt lat="51.233441" lon="4.510787">
        <ele>6.6</ele>
        <time>2020-07-17T18:04:40Z</time>
      </trkpt>
      <trkpt lat="51.233449" lon="4.510957">
        <ele>6.6</ele>
        <time>2020-07-17T18:04:44Z</time>
      </trkpt>
      <trkpt lat="51.233476" lon="4.511122">
        <ele>6.6</ele>
        <time>2020-07-17T18:04:47Z</time>
      </trkpt>
      <trkpt lat="51.233508" lon="4.51125">
        <ele>6.6</ele>
        <time>2020-07-17T18:04:50Z</time>
      </trkpt>
      <trkpt lat="51.233558" lon="4.511368">
        <ele>6.7</ele>
        <time>2020-07-17T18:04:55Z</time>
      </trkpt>
      <trkpt lat="51.233586" lon="4.511497">
        <ele>6.9</ele>
        <time>2020-07-17T18:04:59Z</time>
      </trkpt>
      <trkpt lat="51.233603" lon="4.511635">
        <ele>7.1</ele>
        <time>2020-07-17T18:05:03Z</time>
      </trkpt>
      <trkpt lat="51.233633" lon="4.511755">
        <ele>7.3</ele>
        <time>2020-07-17T18:05:10Z</time>
      </trkpt>
      <trkpt lat="51.233641" lon="4.511925">
        <ele>7.4</ele>
        <time>2020-07-17T18:05:14Z</time>
      </trkpt>
      <trkpt lat="51.233687" lon="4.512077">
        <ele>7.5</ele>
        <time>2020-07-17T18:05:17Z</time>
      </trkpt>
      <trkpt lat="51.233723" lon="4.512197">
        <ele>7.5</ele>
        <time>2020-07-17T18:05:19Z</time>
      </trkpt>
      <trkpt lat="51.233766" lon="4.512318">
        <ele>7.6</ele>
        <time>2020-07-17T18:05:21Z</time>
      </trkpt>
      <trkpt lat="51.233808" lon="4.512441">
        <ele>7.7</ele>
        <time>2020-07-17T18:05:24Z</time>
      </trkpt>
      <trkpt lat="51.233844" lon="4.512579">
        <ele>7.7</ele>
        <time>2020-07-17T18:05:29Z</time>
      </trkpt>
      <trkpt lat="51.233879" lon="4.512702">
        <ele>7.7</ele>
        <time>2020-07-17T18:05:33Z</time>
      </trkpt>
      <trkpt lat="51.233924" lon="4.512824">
        <ele>7.6</ele>
        <time>2020-07-17T18:05:37Z</time>
      </trkpt>
      <trkpt lat="51.233948" lon="4.512987">
        <ele>7.5</ele>
        <time>2020-07-17T18:05:41Z</time>
      </trkpt>
      <trkpt lat="51.233925" lon="4.513122">
        <ele>7.2</ele>
        <time>2020-07-17T18:05:44Z</time>
      </trkpt>
      <trkpt lat="51.233949" lon="4.513255">
        <ele>7</ele>
        <time>2020-07-17T18:05:47Z</time>
      </trkpt>
      <trkpt lat="51.23399" lon="4.513382">
        <ele>6.8</ele>
        <time>2020-07-17T18:05:50Z</time>
      </trkpt>
      <trkpt lat="51.234059" lon="4.513486">
        <ele>6.6</ele>
        <time>2020-07-17T18:05:53Z</time>
      </trkpt>
      <trkpt lat="51.234116" lon="4.513637">
        <ele>6.5</ele>
        <time>2020-07-17T18:05:57Z</time>
      </trkpt>
      <trkpt lat="51.234138" lon="4.513797">
        <ele>6.3</ele>
        <time>2020-07-17T18:06:01Z</time>
      </trkpt>
      <trkpt lat="51.234091" lon="4.513952">
        <ele>6.1</ele>
        <time>2020-07-17T18:06:05Z</time>
      </trkpt>
      <trkpt lat="51.234049" lon="4.514081">
        <ele>6</ele>
        <time>2020-07-17T18:06:08Z</time>
      </trkpt>
      <trkpt lat="51.234021" lon="4.514228">
        <ele>5.9</ele>
        <time>2020-07-17T18:06:12Z</time>
      </trkpt>
      <trkpt lat="51.233988" lon="4.514368">
        <ele>6</ele>
        <time>2020-07-17T18:06:17Z</time>
      </trkpt>
      <trkpt lat="51.233916" lon="4.51447">
        <ele>6.1</ele>
        <time>2020-07-17T18:06:22Z</time>
      </trkpt>
      <trkpt lat="51.233849" lon="4.514588">
        <ele>6.3</ele>
        <time>2020-07-17T18:06:30Z</time>
      </trkpt>
      <trkpt lat="51.233792" lon="4.514685">
        <ele>6.4</ele>
        <time>2020-07-17T18:06:33Z</time>
      </trkpt>
      <trkpt lat="51.233734" lon="4.5148">
        <ele>6.4</ele>
        <time>2020-07-17T18:06:36Z</time>
      </trkpt>
      <trkpt lat="51.233676" lon="4.514923">
        <ele>6.4</ele>
        <time>2020-07-17T18:06:39Z</time>
      </trkpt>
      <trkpt lat="51.233662" lon="4.515076">
        <ele>6.4</ele>
        <time>2020-07-17T18:06:42Z</time>
      </trkpt>
      <trkpt lat="51.233616" lon="4.515201">
        <ele>6.3</ele>
        <time>2020-07-17T18:06:45Z</time>
      </trkpt>
      <trkpt lat="51.233572" lon="4.515325">
        <ele>6.2</ele>
        <time>2020-07-17T18:06:49Z</time>
      </trkpt>
      <trkpt lat="51.233531" lon="4.515459">
        <ele>6.1</ele>
        <time>2020-07-17T18:06:52Z</time>
      </trkpt>
      <trkpt lat="51.233505" lon="4.515598">
        <ele>6</ele>
        <time>2020-07-17T18:06:56Z</time>
      </trkpt>
      <trkpt lat="51.233465" lon="4.515751">
        <ele>5.8</ele>
        <time>2020-07-17T18:07:00Z</time>
      </trkpt>
      <trkpt lat="51.233435" lon="4.515898">
        <ele>5.6</ele>
        <time>2020-07-17T18:07:04Z</time>
      </trkpt>
      <trkpt lat="51.233409" lon="4.516022">
        <ele>5.5</ele>
        <time>2020-07-17T18:07:08Z</time>
      </trkpt>
      <trkpt lat="51.233336" lon="4.516109">
        <ele>5.3</ele>
        <time>2020-07-17T18:07:12Z</time>
      </trkpt>
      <trkpt lat="51.233267" lon="4.516221">
        <ele>5.2</ele>
        <time>2020-07-17T18:07:16Z</time>
      </trkpt>
      <trkpt lat="51.233217" lon="4.516329">
        <ele>5.1</ele>
        <time>2020-07-17T18:07:19Z</time>
      </trkpt>
      <trkpt lat="51.233139" lon="4.516396">
        <ele>5</ele>
        <time>2020-07-17T18:07:22Z</time>
      </trkpt>
      <trkpt lat="51.233075" lon="4.516516">
        <ele>4.9</ele>
        <time>2020-07-17T18:07:25Z</time>
      </trkpt>
      <trkpt lat="51.233027" lon="4.516636">
        <ele>4.9</ele>
        <time>2020-07-17T18:07:28Z</time>
      </trkpt>
      <trkpt lat="51.232987" lon="4.516782">
        <ele>4.9</ele>
        <time>2020-07-17T18:07:32Z</time>
      </trkpt>
      <trkpt lat="51.232938" lon="4.516919">
        <ele>4.9</ele>
        <time>2020-07-17T18:07:37Z</time>
      </trkpt>
      <trkpt lat="51.232901" lon="4.517063">
        <ele>4.9</ele>
        <time>2020-07-17T18:07:41Z</time>
      </trkpt>
      <trkpt lat="51.232872" lon="4.517206">
        <ele>4.9</ele>
        <time>2020-07-17T18:07:47Z</time>
      </trkpt>
      <trkpt lat="51.232842" lon="4.517337">
        <ele>4.9</ele>
        <time>2020-07-17T18:07:51Z</time>
      </trkpt>
      <trkpt lat="51.232812" lon="4.517482">
        <ele>4.9</ele>
        <time>2020-07-17T18:07:55Z</time>
      </trkpt>
      <trkpt lat="51.23278" lon="4.517637">
        <ele>4.9</ele>
        <time>2020-07-17T18:08:00Z</time>
      </trkpt>
      <trkpt lat="51.232743" lon="4.517773">
        <ele>4.9</ele>
        <time>2020-07-17T18:08:04Z</time>
      </trkpt>
      <trkpt lat="51.232677" lon="4.517882">
        <ele>5</ele>
        <time>2020-07-17T18:08:08Z</time>
      </trkpt>
      <trkpt lat="51.232657" lon="4.518032">
        <ele>5.2</ele>
        <time>2020-07-17T18:08:12Z</time>
      </trkpt>
      <trkpt lat="51.232599" lon="4.518169">
        <ele>5.3</ele>
        <time>2020-07-17T18:08:16Z</time>
      </trkpt>
      <trkpt lat="51.232552" lon="4.51831">
        <ele>5.4</ele>
        <time>2020-07-17T18:08:20Z</time>
      </trkpt>
      <trkpt lat="51.232497" lon="4.518426">
        <ele>5.5</ele>
        <time>2020-07-17T18:08:23Z</time>
      </trkpt>
      <trkpt lat="51.232448" lon="4.518557">
        <ele>5.7</ele>
        <time>2020-07-17T18:08:28Z</time>
      </trkpt>
      <trkpt lat="51.232395" lon="4.518678">
        <ele>5.8</ele>
        <time>2020-07-17T18:08:32Z</time>
      </trkpt>
      <trkpt lat="51.232363" lon="4.518827">
        <ele>5.9</ele>
        <time>2020-07-17T18:08:37Z</time>
      </trkpt>
      <trkpt lat="51.232309" lon="4.518973">
        <ele>6</ele>
        <time>2020-07-17T18:08:41Z</time>
      </trkpt>
      <trkpt lat="51.23228" lon="4.519095">
        <ele>6.1</ele>
        <time>2020-07-17T18:08:44Z</time>
      </trkpt>
      <trkpt lat="51.232242" lon="4.519219">
        <ele>6.1</ele>
        <time>2020-07-17T18:08:48Z</time>
      </trkpt>
      <trkpt lat="51.232186" lon="4.519351">
        <ele>6</ele>
        <time>2020-07-17T18:08:53Z</time>
      </trkpt>
      <trkpt lat="51.232152" lon="4.519474">
        <ele>5.9</ele>
        <time>2020-07-17T18:08:57Z</time>
      </trkpt>
      <trkpt lat="51.2321" lon="4.519578">
        <ele>5.8</ele>
        <time>2020-07-17T18:09:01Z</time>
      </trkpt>
      <trkpt lat="51.232047" lon="4.519712">
        <ele>5.7</ele>
        <time>2020-07-17T18:09:05Z</time>
      </trkpt>
      <trkpt lat="51.232017" lon="4.519842">
        <ele>5.5</ele>
        <time>2020-07-17T18:09:08Z</time>
      </trkpt>
      <trkpt lat="51.231969" lon="4.519974">
        <ele>5.3</ele>
        <time>2020-07-17T18:09:12Z</time>
      </trkpt>
      <trkpt lat="51.231924" lon="4.520114">
        <ele>5.2</ele>
        <time>2020-07-17T18:09:16Z</time>
      </trkpt>
      <trkpt lat="51.231871" lon="4.520224">
        <ele>5</ele>
        <time>2020-07-17T18:09:20Z</time>
      </trkpt>
      <trkpt lat="51.231837" lon="4.520363">
        <ele>4.8</ele>
        <time>2020-07-17T18:09:25Z</time>
      </trkpt>
      <trkpt lat="51.231822" lon="4.520523">
        <ele>4.6</ele>
        <time>2020-07-17T18:09:29Z</time>
      </trkpt>
      <trkpt lat="51.231816" lon="4.52067">
        <ele>4.5</ele>
        <time>2020-07-17T18:09:33Z</time>
      </trkpt>
      <trkpt lat="51.231793" lon="4.520815">
        <ele>4.5</ele>
        <time>2020-07-17T18:09:37Z</time>
      </trkpt>
      <trkpt lat="51.231743" lon="4.520952">
        <ele>4.5</ele>
        <time>2020-07-17T18:09:41Z</time>
      </trkpt>
      <trkpt lat="51.231698" lon="4.521062">
        <ele>4.5</ele>
        <time>2020-07-17T18:09:45Z</time>
      </trkpt>
      <trkpt lat="51.231646" lon="4.521173">
        <ele>4.5</ele>
        <time>2020-07-17T18:09:48Z</time>
      </trkpt>
      <trkpt lat="51.231595" lon="4.521288">
        <ele>4.6</ele>
        <time>2020-07-17T18:09:52Z</time>
      </trkpt>
      <trkpt lat="51.231564" lon="4.521409">
        <ele>4.9</ele>
        <time>2020-07-17T18:09:55Z</time>
      </trkpt>
      <trkpt lat="51.231504" lon="4.521544">
        <ele>5.1</ele>
        <time>2020-07-17T18:09:59Z</time>
      </trkpt>
      <trkpt lat="51.231467" lon="4.521675">
        <ele>5.4</ele>
        <time>2020-07-17T18:10:04Z</time>
      </trkpt>
      <trkpt lat="51.231445" lon="4.521827">
        <ele>5.6</ele>
        <time>2020-07-17T18:10:08Z</time>
      </trkpt>
      <trkpt lat="51.231421" lon="4.521959">
        <ele>5.8</ele>
        <time>2020-07-17T18:10:12Z</time>
      </trkpt>
      <trkpt lat="51.231384" lon="4.522088">
        <ele>6</ele>
        <time>2020-07-17T18:10:16Z</time>
      </trkpt>
      <trkpt lat="51.231352" lon="4.522209">
        <ele>6.2</ele>
        <time>2020-07-17T18:10:20Z</time>
      </trkpt>
      <trkpt lat="51.231299" lon="4.522313">
        <ele>6.3</ele>
        <time>2020-07-17T18:10:23Z</time>
      </trkpt>
      <trkpt lat="51.23125" lon="4.52245">
        <ele>6.3</ele>
        <time>2020-07-17T18:10:27Z</time>
      </trkpt>
      <trkpt lat="51.231204" lon="4.522569">
        <ele>6.2</ele>
        <time>2020-07-17T18:10:31Z</time>
      </trkpt>
      <trkpt lat="51.231117" lon="4.522661">
        <ele>6.1</ele>
        <time>2020-07-17T18:10:35Z</time>
      </trkpt>
      <trkpt lat="51.231058" lon="4.522754">
        <ele>5.9</ele>
        <time>2020-07-17T18:10:38Z</time>
      </trkpt>
      <trkpt lat="51.231012" lon="4.522885">
        <ele>5.7</ele>
        <time>2020-07-17T18:10:43Z</time>
      </trkpt>
      <trkpt lat="51.230998" lon="4.523053">
        <ele>5.5</ele>
        <time>2020-07-17T18:10:48Z</time>
      </trkpt>
      <trkpt lat="51.230956" lon="4.5232">
        <ele>5.4</ele>
        <time>2020-07-17T18:10:52Z</time>
      </trkpt>
      <trkpt lat="51.230928" lon="4.523343">
        <ele>5.3</ele>
        <time>2020-07-17T18:10:56Z</time>
      </trkpt>
      <trkpt lat="51.230888" lon="4.523481">
        <ele>5.2</ele>
        <time>2020-07-17T18:11:01Z</time>
      </trkpt>
      <trkpt lat="51.23084" lon="4.523611">
        <ele>5.1</ele>
        <time>2020-07-17T18:11:06Z</time>
      </trkpt>
      <trkpt lat="51.230821" lon="4.523752">
        <ele>5</ele>
        <time>2020-07-17T18:11:09Z</time>
      </trkpt>
      <trkpt lat="51.23078" lon="4.523865">
        <ele>5</ele>
        <time>2020-07-17T18:11:12Z</time>
      </trkpt>
      <trkpt lat="51.230725" lon="4.523976">
        <ele>5</ele>
        <time>2020-07-17T18:11:17Z</time>
      </trkpt>
      <trkpt lat="51.230697" lon="4.524115">
        <ele>5.1</ele>
        <time>2020-07-17T18:11:22Z</time>
      </trkpt>
      <trkpt lat="51.230645" lon="4.524226">
        <ele>5.2</ele>
        <time>2020-07-17T18:11:26Z</time>
      </trkpt>
      <trkpt lat="51.23061" lon="4.524345">
        <ele>5.3</ele>
        <time>2020-07-17T18:11:29Z</time>
      </trkpt>
      <trkpt lat="51.230572" lon="4.524461">
        <ele>5.4</ele>
        <time>2020-07-17T18:11:32Z</time>
      </trkpt>
      <trkpt lat="51.230514" lon="4.5246">
        <ele>5.5</ele>
        <time>2020-07-17T18:11:36Z</time>
      </trkpt>
      <trkpt lat="51.230478" lon="4.524727">
        <ele>5.7</ele>
        <time>2020-07-17T18:11:40Z</time>
      </trkpt>
      <trkpt lat="51.230425" lon="4.524863">
        <ele>5.8</ele>
        <time>2020-07-17T18:11:44Z</time>
      </trkpt>
      <trkpt lat="51.230393" lon="4.524987">
        <ele>5.9</ele>
        <time>2020-07-17T18:11:47Z</time>
      </trkpt>
      <trkpt lat="51.230355" lon="4.525144">
        <ele>5.9</ele>
        <time>2020-07-17T18:11:51Z</time>
      </trkpt>
      <trkpt lat="51.230343" lon="4.525275">
        <ele>5.9</ele>
        <time>2020-07-17T18:11:55Z</time>
      </trkpt>
      <trkpt lat="51.230336" lon="4.525125">
        <ele>5.9</ele>
        <time>2020-07-17T18:12:01Z</time>
      </trkpt>
      <trkpt lat="51.230385" lon="4.525016">
        <ele>5.8</ele>
        <time>2020-07-17T18:12:03Z</time>
      </trkpt>
      <trkpt lat="51.23046" lon="4.524916">
        <ele>5.7</ele>
        <time>2020-07-17T18:12:06Z</time>
      </trkpt>
      <trkpt lat="51.230501" lon="4.524803">
        <ele>5.6</ele>
        <time>2020-07-17T18:12:10Z</time>
      </trkpt>
      <trkpt lat="51.230536" lon="4.524686">
        <ele>5.5</ele>
        <time>2020-07-17T18:12:13Z</time>
      </trkpt>
      <trkpt lat="51.230604" lon="4.524601">
        <ele>5.4</ele>
        <time>2020-07-17T18:12:16Z</time>
      </trkpt>
      <trkpt lat="51.230682" lon="4.524503">
        <ele>5.2</ele>
        <time>2020-07-17T18:12:21Z</time>
      </trkpt>
      <trkpt lat="51.23073" lon="4.524374">
        <ele>5.1</ele>
        <time>2020-07-17T18:12:25Z</time>
      </trkpt>
      <trkpt lat="51.230764" lon="4.524222">
        <ele>5</ele>
        <time>2020-07-17T18:12:29Z</time>
      </trkpt>
      <trkpt lat="51.230797" lon="4.524081">
        <ele>4.9</ele>
        <time>2020-07-17T18:12:33Z</time>
      </trkpt>
      <trkpt lat="51.230848" lon="4.523977">
        <ele>4.8</ele>
        <time>2020-07-17T18:12:37Z</time>
      </trkpt>
      <trkpt lat="51.230889" lon="4.523857">
        <ele>4.8</ele>
        <time>2020-07-17T18:12:41Z</time>
      </trkpt>
      <trkpt lat="51.230912" lon="4.523724">
        <ele>4.8</ele>
        <time>2020-07-17T18:12:46Z</time>
      </trkpt>
      <trkpt lat="51.230956" lon="4.52359">
        <ele>4.8</ele>
        <time>2020-07-17T18:12:50Z</time>
      </trkpt>
      <trkpt lat="51.230981" lon="4.523465">
        <ele>4.9</ele>
        <time>2020-07-17T18:12:53Z</time>
      </trkpt>
      <trkpt lat="51.231009" lon="4.523315">
        <ele>5</ele>
        <time>2020-07-17T18:12:57Z</time>
      </trkpt>
      <trkpt lat="51.231037" lon="4.523186">
        <ele>5.1</ele>
        <time>2020-07-17T18:13:00Z</time>
      </trkpt>
      <trkpt lat="51.231078" lon="4.523049">
        <ele>5.3</ele>
        <time>2020-07-17T18:13:04Z</time>
      </trkpt>
      <trkpt lat="51.231126" lon="4.522916">
        <ele>5.5</ele>
        <time>2020-07-17T18:13:09Z</time>
      </trkpt>
      <trkpt lat="51.231171" lon="4.522778">
        <ele>5.6</ele>
        <time>2020-07-17T18:13:13Z</time>
      </trkpt>
      <trkpt lat="51.231221" lon="4.522674">
        <ele>5.8</ele>
        <time>2020-07-17T18:13:16Z</time>
      </trkpt>
      <trkpt lat="51.231248" lon="4.522541">
        <ele>6</ele>
        <time>2020-07-17T18:13:20Z</time>
      </trkpt>
      <trkpt lat="51.231241" lon="4.522389">
        <ele>6</ele>
        <time>2020-07-17T18:13:24Z</time>
      </trkpt>
      <trkpt lat="51.231281" lon="4.522262">
        <ele>6</ele>
        <time>2020-07-17T18:13:28Z</time>
      </trkpt>
      <trkpt lat="51.231329" lon="4.522119">
        <ele>6</ele>
        <time>2020-07-17T18:13:32Z</time>
      </trkpt>
      <trkpt lat="51.23136" lon="4.521996">
        <ele>5.8</ele>
        <time>2020-07-17T18:13:36Z</time>
      </trkpt>
      <trkpt lat="51.231435" lon="4.521895">
        <ele>5.6</ele>
        <time>2020-07-17T18:13:41Z</time>
      </trkpt>
      <trkpt lat="51.231465" lon="4.521751">
        <ele>5.5</ele>
        <time>2020-07-17T18:13:45Z</time>
      </trkpt>
      <trkpt lat="51.231511" lon="4.521634">
        <ele>5.2</ele>
        <time>2020-07-17T18:13:48Z</time>
      </trkpt>
      <trkpt lat="51.231557" lon="4.521526">
        <ele>4.9</ele>
        <time>2020-07-17T18:13:52Z</time>
      </trkpt>
      <trkpt lat="51.231604" lon="4.521398">
        <ele>4.6</ele>
        <time>2020-07-17T18:13:55Z</time>
      </trkpt>
      <trkpt lat="51.231635" lon="4.521275">
        <ele>4.5</ele>
        <time>2020-07-17T18:13:58Z</time>
      </trkpt>
      <trkpt lat="51.231681" lon="4.521165">
        <ele>4.3</ele>
        <time>2020-07-17T18:14:02Z</time>
      </trkpt>
      <trkpt lat="51.231728" lon="4.52103">
        <ele>4.3</ele>
        <time>2020-07-17T18:14:06Z</time>
      </trkpt>
      <trkpt lat="51.231773" lon="4.520889">
        <ele>4.3</ele>
        <time>2020-07-17T18:14:11Z</time>
      </trkpt>
      <trkpt lat="51.231836" lon="4.520772">
        <ele>4.3</ele>
        <time>2020-07-17T18:14:15Z</time>
      </trkpt>
      <trkpt lat="51.231855" lon="4.520622">
        <ele>4.4</ele>
        <time>2020-07-17T18:14:18Z</time>
      </trkpt>
      <trkpt lat="51.231899" lon="4.520472">
        <ele>4.5</ele>
        <time>2020-07-17T18:14:22Z</time>
      </trkpt>
      <trkpt lat="51.231944" lon="4.520329">
        <ele>4.5</ele>
        <time>2020-07-17T18:14:26Z</time>
      </trkpt>
      <trkpt lat="51.231977" lon="4.520196">
        <ele>4.7</ele>
        <time>2020-07-17T18:14:30Z</time>
      </trkpt>
      <trkpt lat="51.232018" lon="4.520051">
        <ele>4.9</ele>
        <time>2020-07-17T18:14:34Z</time>
      </trkpt>
      <trkpt lat="51.232082" lon="4.519929">
        <ele>5.1</ele>
        <time>2020-07-17T18:14:37Z</time>
      </trkpt>
      <trkpt lat="51.232123" lon="4.51981">
        <ele>5.3</ele>
        <time>2020-07-17T18:14:40Z</time>
      </trkpt>
      <trkpt lat="51.232151" lon="4.519684">
        <ele>5.5</ele>
        <time>2020-07-17T18:14:43Z</time>
      </trkpt>
      <trkpt lat="51.232192" lon="4.519572">
        <ele>5.5</ele>
        <time>2020-07-17T18:14:46Z</time>
      </trkpt>
      <trkpt lat="51.232229" lon="4.519448">
        <ele>5.6</ele>
        <time>2020-07-17T18:14:50Z</time>
      </trkpt>
      <trkpt lat="51.232247" lon="4.519313">
        <ele>5.7</ele>
        <time>2020-07-17T18:14:55Z</time>
      </trkpt>
      <trkpt lat="51.232297" lon="4.51918">
        <ele>5.7</ele>
        <time>2020-07-17T18:14:59Z</time>
      </trkpt>
      <trkpt lat="51.232349" lon="4.519066">
        <ele>5.7</ele>
        <time>2020-07-17T18:15:02Z</time>
      </trkpt>
      <trkpt lat="51.232394" lon="4.518957">
        <ele>5.7</ele>
        <time>2020-07-17T18:15:05Z</time>
      </trkpt>
      <trkpt lat="51.232408" lon="4.518818">
        <ele>5.6</ele>
        <time>2020-07-17T18:15:09Z</time>
      </trkpt>
      <trkpt lat="51.232436" lon="4.518672">
        <ele>5.5</ele>
        <time>2020-07-17T18:15:13Z</time>
      </trkpt>
      <trkpt lat="51.232465" lon="4.51852">
        <ele>5.5</ele>
        <time>2020-07-17T18:15:17Z</time>
      </trkpt>
      <trkpt lat="51.232513" lon="4.518392">
        <ele>5.4</ele>
        <time>2020-07-17T18:15:20Z</time>
      </trkpt>
      <trkpt lat="51.232576" lon="4.518267">
        <ele>5.3</ele>
        <time>2020-07-17T18:15:23Z</time>
      </trkpt>
      <trkpt lat="51.232631" lon="4.518147">
        <ele>5.2</ele>
        <time>2020-07-17T18:15:27Z</time>
      </trkpt>
      <trkpt lat="51.232686" lon="4.518034">
        <ele>5</ele>
        <time>2020-07-17T18:15:31Z</time>
      </trkpt>
      <trkpt lat="51.232739" lon="4.517924">
        <ele>4.8</ele>
        <time>2020-07-17T18:15:34Z</time>
      </trkpt>
      <trkpt lat="51.232772" lon="4.51777">
        <ele>4.8</ele>
        <time>2020-07-17T18:15:39Z</time>
      </trkpt>
      <trkpt lat="51.232801" lon="4.517648">
        <ele>4.8</ele>
        <time>2020-07-17T18:15:43Z</time>
      </trkpt>
      <trkpt lat="51.232824" lon="4.517512">
        <ele>4.8</ele>
        <time>2020-07-17T18:15:48Z</time>
      </trkpt>
      <trkpt lat="51.232875" lon="4.517391">
        <ele>4.8</ele>
        <time>2020-07-17T18:15:52Z</time>
      </trkpt>
      <trkpt lat="51.232895" lon="4.517261">
        <ele>4.8</ele>
        <time>2020-07-17T18:15:55Z</time>
      </trkpt>
      <trkpt lat="51.232864" lon="4.517134">
        <ele>4.8</ele>
        <time>2020-07-17T18:15:59Z</time>
      </trkpt>
      <trkpt lat="51.232919" lon="4.517005">
        <ele>4.8</ele>
        <time>2020-07-17T18:16:04Z</time>
      </trkpt>
      <trkpt lat="51.232979" lon="4.516899">
        <ele>4.8</ele>
        <time>2020-07-17T18:16:08Z</time>
      </trkpt>
      <trkpt lat="51.233028" lon="4.516758">
        <ele>4.8</ele>
        <time>2020-07-17T18:16:12Z</time>
      </trkpt>
      <trkpt lat="51.233085" lon="4.516611">
        <ele>4.9</ele>
        <time>2020-07-17T18:16:16Z</time>
      </trkpt>
      <trkpt lat="51.233132" lon="4.51648">
        <ele>5.1</ele>
        <time>2020-07-17T18:16:19Z</time>
      </trkpt>
      <trkpt lat="51.233171" lon="4.516359">
        <ele>5.2</ele>
        <time>2020-07-17T18:16:22Z</time>
      </trkpt>
      <trkpt lat="51.233221" lon="4.516245">
        <ele>5.3</ele>
        <time>2020-07-17T18:16:26Z</time>
      </trkpt>
      <trkpt lat="51.233266" lon="4.516102">
        <ele>5.4</ele>
        <time>2020-07-17T18:16:30Z</time>
      </trkpt>
      <trkpt lat="51.233284" lon="4.515976">
        <ele>5.5</ele>
        <time>2020-07-17T18:16:33Z</time>
      </trkpt>
      <trkpt lat="51.23334" lon="4.515832">
        <ele>5.7</ele>
        <time>2020-07-17T18:16:37Z</time>
      </trkpt>
      <trkpt lat="51.233396" lon="4.515712">
        <ele>5.9</ele>
        <time>2020-07-17T18:16:41Z</time>
      </trkpt>
      <trkpt lat="51.233461" lon="4.515584">
        <ele>6.1</ele>
        <time>2020-07-17T18:16:45Z</time>
      </trkpt>
      <trkpt lat="51.233512" lon="4.51544">
        <ele>6.3</ele>
        <time>2020-07-17T18:16:49Z</time>
      </trkpt>
      <trkpt lat="51.233547" lon="4.515322">
        <ele>6.4</ele>
        <time>2020-07-17T18:16:52Z</time>
      </trkpt>
      <trkpt lat="51.233594" lon="4.515202">
        <ele>6.5</ele>
        <time>2020-07-17T18:16:56Z</time>
      </trkpt>
      <trkpt lat="51.233591" lon="4.515036">
        <ele>6.5</ele>
        <time>2020-07-17T18:17:01Z</time>
      </trkpt>
      <trkpt lat="51.233623" lon="4.514914">
        <ele>6.5</ele>
        <time>2020-07-17T18:17:05Z</time>
      </trkpt>
      <trkpt lat="51.233664" lon="4.514794">
        <ele>6.5</ele>
        <time>2020-07-17T18:17:10Z</time>
      </trkpt>
      <trkpt lat="51.233743" lon="4.514747">
        <ele>6.5</ele>
        <time>2020-07-17T18:17:14Z</time>
      </trkpt>
      <trkpt lat="51.233822" lon="4.51468">
        <ele>6.4</ele>
        <time>2020-07-17T18:17:18Z</time>
      </trkpt>
      <trkpt lat="51.233919" lon="4.514532">
        <ele>6.3</ele>
        <time>2020-07-17T18:17:21Z</time>
      </trkpt>
      <trkpt lat="51.233977" lon="4.514395">
        <ele>6.2</ele>
        <time>2020-07-17T18:17:23Z</time>
      </trkpt>
      <trkpt lat="51.234035" lon="4.514288">
        <ele>6.2</ele>
        <time>2020-07-17T18:17:25Z</time>
      </trkpt>
      <trkpt lat="51.234042" lon="4.514131">
        <ele>6.2</ele>
        <time>2020-07-17T18:17:29Z</time>
      </trkpt>
      <trkpt lat="51.234036" lon="4.513978">
        <ele>6.3</ele>
        <time>2020-07-17T18:17:33Z</time>
      </trkpt>
      <trkpt lat="51.23405" lon="4.513835">
        <ele>6.5</ele>
        <time>2020-07-17T18:17:37Z</time>
      </trkpt>
      <trkpt lat="51.234035" lon="4.51367">
        <ele>6.6</ele>
        <time>2020-07-17T18:17:41Z</time>
      </trkpt>
      <trkpt lat="51.233992" lon="4.513533">
        <ele>6.8</ele>
        <time>2020-07-17T18:17:46Z</time>
      </trkpt>
      <trkpt lat="51.233956" lon="4.513395">
        <ele>7</ele>
        <time>2020-07-17T18:17:50Z</time>
      </trkpt>
      <trkpt lat="51.233946" lon="4.513259">
        <ele>7.2</ele>
        <time>2020-07-17T18:17:53Z</time>
      </trkpt>
      <trkpt lat="51.233921" lon="4.513119">
        <ele>7.4</ele>
        <time>2020-07-17T18:17:57Z</time>
      </trkpt>
      <trkpt lat="51.233887" lon="4.512999">
        <ele>7.5</ele>
        <time>2020-07-17T18:18:01Z</time>
      </trkpt>
      <trkpt lat="51.23384" lon="4.51286">
        <ele>7.7</ele>
        <time>2020-07-17T18:18:06Z</time>
      </trkpt>
      <trkpt lat="51.233818" lon="4.512705">
        <ele>7.7</ele>
        <time>2020-07-17T18:18:10Z</time>
      </trkpt>
      <trkpt lat="51.233801" lon="4.512559">
        <ele>7.7</ele>
        <time>2020-07-17T18:18:14Z</time>
      </trkpt>
      <trkpt lat="51.233773" lon="4.512432">
        <ele>7.7</ele>
        <time>2020-07-17T18:18:18Z</time>
      </trkpt>
      <trkpt lat="51.233737" lon="4.512295">
        <ele>7.6</ele>
        <time>2020-07-17T18:18:22Z</time>
      </trkpt>
      <trkpt lat="51.2337" lon="4.512166">
        <ele>7.5</ele>
        <time>2020-07-17T18:18:26Z</time>
      </trkpt>
      <trkpt lat="51.233679" lon="4.512026">
        <ele>7.5</ele>
        <time>2020-07-17T18:18:30Z</time>
      </trkpt>
      <trkpt lat="51.233637" lon="4.511911">
        <ele>7.4</ele>
        <time>2020-07-17T18:18:33Z</time>
      </trkpt>
      <trkpt lat="51.233599" lon="4.511788">
        <ele>7.3</ele>
        <time>2020-07-17T18:18:36Z</time>
      </trkpt>
      <trkpt lat="51.233539" lon="4.51165">
        <ele>7.1</ele>
        <time>2020-07-17T18:18:39Z</time>
      </trkpt>
      <trkpt lat="51.233504" lon="4.511515">
        <ele>6.9</ele>
        <time>2020-07-17T18:18:43Z</time>
      </trkpt>
      <trkpt lat="51.233512" lon="4.511382">
        <ele>6.7</ele>
        <time>2020-07-17T18:18:48Z</time>
      </trkpt>
      <trkpt lat="51.233497" lon="4.511235">
        <ele>6.6</ele>
        <time>2020-07-17T18:18:52Z</time>
      </trkpt>
      <trkpt lat="51.233493" lon="4.511081">
        <ele>6.5</ele>
        <time>2020-07-17T18:18:56Z</time>
      </trkpt>
      <trkpt lat="51.233472" lon="4.510953">
        <ele>6.5</ele>
        <time>2020-07-17T18:18:59Z</time>
      </trkpt>
      <trkpt lat="51.233436" lon="4.510806">
        <ele>6.5</ele>
        <time>2020-07-17T18:19:04Z</time>
      </trkpt>
      <trkpt lat="51.233384" lon="4.510707">
        <ele>6.5</ele>
        <time>2020-07-17T18:19:07Z</time>
      </trkpt>
      <trkpt lat="51.233361" lon="4.510577">
        <ele>6.4</ele>
        <time>2020-07-17T18:19:11Z</time>
      </trkpt>
      <trkpt lat="51.233327" lon="4.510454">
        <ele>6.3</ele>
        <time>2020-07-17T18:19:14Z</time>
      </trkpt>
      <trkpt lat="51.233303" lon="4.510326">
        <ele>6.1</ele>
        <time>2020-07-17T18:19:17Z</time>
      </trkpt>
      <trkpt lat="51.23328" lon="4.51017">
        <ele>6</ele>
        <time>2020-07-17T18:19:21Z</time>
      </trkpt>
      <trkpt lat="51.233258" lon="4.510032">
        <ele>6</ele>
        <time>2020-07-17T18:19:25Z</time>
      </trkpt>
      <trkpt lat="51.233243" lon="4.509897">
        <ele>6</ele>
        <time>2020-07-17T18:19:29Z</time>
      </trkpt>
      <trkpt lat="51.233223" lon="4.50974">
        <ele>6</ele>
        <time>2020-07-17T18:19:33Z</time>
      </trkpt>
      <trkpt lat="51.23319" lon="4.509596">
        <ele>6</ele>
        <time>2020-07-17T18:19:37Z</time>
      </trkpt>
      <trkpt lat="51.23315" lon="4.509467">
        <ele>5.9</ele>
        <time>2020-07-17T18:19:40Z</time>
      </trkpt>
      <trkpt lat="51.233123" lon="4.509313">
        <ele>5.9</ele>
        <time>2020-07-17T18:19:44Z</time>
      </trkpt>
      <trkpt lat="51.233092" lon="4.509179">
        <ele>6</ele>
        <time>2020-07-17T18:19:48Z</time>
      </trkpt>
      <trkpt lat="51.233067" lon="4.509031">
        <ele>6.1</ele>
        <time>2020-07-17T18:19:53Z</time>
      </trkpt>
      <trkpt lat="51.233081" lon="4.508884">
        <ele>6.2</ele>
        <time>2020-07-17T18:19:57Z</time>
      </trkpt>
      <trkpt lat="51.233099" lon="4.508743">
        <ele>6.3</ele>
        <time>2020-07-17T18:20:01Z</time>
      </trkpt>
      <trkpt lat="51.233073" lon="4.508616">
        <ele>6.4</ele>
        <time>2020-07-17T18:20:06Z</time>
      </trkpt>
      <trkpt lat="51.233014" lon="4.508465">
        <ele>6.4</ele>
        <time>2020-07-17T18:20:10Z</time>
      </trkpt>
      <trkpt lat="51.232979" lon="4.508333">
        <ele>6.4</ele>
        <time>2020-07-17T18:20:13Z</time>
      </trkpt>
      <trkpt lat="51.232951" lon="4.508196">
        <ele>6.3</ele>
        <time>2020-07-17T18:20:17Z</time>
      </trkpt>
      <trkpt lat="51.232904" lon="4.508073">
        <ele>6.2</ele>
        <time>2020-07-17T18:20:21Z</time>
      </trkpt>
      <trkpt lat="51.232884" lon="4.507914">
        <ele>6.1</ele>
        <time>2020-07-17T18:20:26Z</time>
      </trkpt>
      <trkpt lat="51.232855" lon="4.507788">
        <ele>5.8</ele>
        <time>2020-07-17T18:20:29Z</time>
      </trkpt>
      <trkpt lat="51.232811" lon="4.507678">
        <ele>5.5</ele>
        <time>2020-07-17T18:20:32Z</time>
      </trkpt>
      <trkpt lat="51.232756" lon="4.507554">
        <ele>5.1</ele>
        <time>2020-07-17T18:20:36Z</time>
      </trkpt>
      <trkpt lat="51.232726" lon="4.507402">
        <ele>4.7</ele>
        <time>2020-07-17T18:20:40Z</time>
      </trkpt>
      <trkpt lat="51.23274" lon="4.507243">
        <ele>4.5</ele>
        <time>2020-07-17T18:20:44Z</time>
      </trkpt>
      <trkpt lat="51.232708" lon="4.507078">
        <ele>4.3</ele>
        <time>2020-07-17T18:20:48Z</time>
      </trkpt>
      <trkpt lat="51.232666" lon="4.506952">
        <ele>4.2</ele>
        <time>2020-07-17T18:20:51Z</time>
      </trkpt>
      <trkpt lat="51.232616" lon="4.506816">
        <ele>4.1</ele>
        <time>2020-07-17T18:20:54Z</time>
      </trkpt>
      <trkpt lat="51.232593" lon="4.506678">
        <ele>4.2</ele>
        <time>2020-07-17T18:20:58Z</time>
      </trkpt>
      <trkpt lat="51.232594" lon="4.506538">
        <ele>4.4</ele>
        <time>2020-07-17T18:21:02Z</time>
      </trkpt>
      <trkpt lat="51.232577" lon="4.5064">
        <ele>4.5</ele>
        <time>2020-07-17T18:21:07Z</time>
      </trkpt>
      <trkpt lat="51.232544" lon="4.506256">
        <ele>4.8</ele>
        <time>2020-07-17T18:21:11Z</time>
      </trkpt>
      <trkpt lat="51.232508" lon="4.506106">
        <ele>5.3</ele>
        <time>2020-07-17T18:21:14Z</time>
      </trkpt>
      <trkpt lat="51.232474" lon="4.505975">
        <ele>5.7</ele>
        <time>2020-07-17T18:21:17Z</time>
      </trkpt>
      <trkpt lat="51.23243" lon="4.505834">
        <ele>6.2</ele>
        <time>2020-07-17T18:21:20Z</time>
      </trkpt>
      <trkpt lat="51.2324" lon="4.50571">
        <ele>6.6</ele>
        <time>2020-07-17T18:21:23Z</time>
      </trkpt>
      <trkpt lat="51.23237" lon="4.50557">
        <ele>7</ele>
        <time>2020-07-17T18:21:27Z</time>
      </trkpt>
      <trkpt lat="51.232359" lon="4.505425">
        <ele>7.2</ele>
        <time>2020-07-17T18:21:31Z</time>
      </trkpt>
      <trkpt lat="51.232328" lon="4.505289">
        <ele>7.4</ele>
        <time>2020-07-17T18:21:34Z</time>
      </trkpt>
      <trkpt lat="51.232285" lon="4.505146">
        <ele>7.5</ele>
        <time>2020-07-17T18:21:38Z</time>
      </trkpt>
      <trkpt lat="51.232257" lon="4.505002">
        <ele>7.5</ele>
        <time>2020-07-17T18:21:43Z</time>
      </trkpt>
      <trkpt lat="51.232209" lon="4.504865">
        <ele>7.5</ele>
        <time>2020-07-17T18:21:46Z</time>
      </trkpt>
      <trkpt lat="51.232196" lon="4.504728">
        <ele>7.5</ele>
        <time>2020-07-17T18:21:50Z</time>
      </trkpt>
      <trkpt lat="51.232178" lon="4.504569">
        <ele>7.5</ele>
        <time>2020-07-17T18:21:54Z</time>
      </trkpt>
      <trkpt lat="51.232189" lon="4.504431">
        <ele>7.5</ele>
        <time>2020-07-17T18:21:58Z</time>
      </trkpt>
      <trkpt lat="51.23218" lon="4.504289">
        <ele>7.5</ele>
        <time>2020-07-17T18:22:01Z</time>
      </trkpt>
      <trkpt lat="51.232156" lon="4.504164">
        <ele>7.5</ele>
        <time>2020-07-17T18:22:04Z</time>
      </trkpt>
      <trkpt lat="51.232146" lon="4.504017">
        <ele>7.4</ele>
        <time>2020-07-17T18:22:08Z</time>
      </trkpt>
      <trkpt lat="51.232132" lon="4.503856">
        <ele>7.4</ele>
        <time>2020-07-17T18:22:13Z</time>
      </trkpt>
      <trkpt lat="51.232107" lon="4.503725">
        <ele>7.4</ele>
        <time>2020-07-17T18:22:17Z</time>
      </trkpt>
      <trkpt lat="51.23209" lon="4.503586">
        <ele>7.4</ele>
        <time>2020-07-17T18:22:22Z</time>
      </trkpt>
      <trkpt lat="51.232059" lon="4.503432">
        <ele>7.4</ele>
        <time>2020-07-17T18:22:26Z</time>
      </trkpt>
      <trkpt lat="51.232008" lon="4.503295">
        <ele>7.3</ele>
        <time>2020-07-17T18:22:29Z</time>
      </trkpt>
      <trkpt lat="51.231955" lon="4.503171">
        <ele>7.4</ele>
        <time>2020-07-17T18:22:32Z</time>
      </trkpt>
      <trkpt lat="51.231945" lon="4.503038">
        <ele>7.5</ele>
        <time>2020-07-17T18:22:35Z</time>
      </trkpt>
      <trkpt lat="51.231916" lon="4.502891">
        <ele>7.5</ele>
        <time>2020-07-17T18:22:40Z</time>
      </trkpt>
      <trkpt lat="51.231845" lon="4.502799">
        <ele>7.5</ele>
        <time>2020-07-17T18:22:43Z</time>
      </trkpt>
      <trkpt lat="51.231774" lon="4.502695">
        <ele>7.4</ele>
        <time>2020-07-17T18:22:46Z</time>
      </trkpt>
      <trkpt lat="51.231701" lon="4.502578">
        <ele>7.5</ele>
        <time>2020-07-17T18:22:49Z</time>
      </trkpt>
      <trkpt lat="51.231634" lon="4.502462">
        <ele>7.5</ele>
        <time>2020-07-17T18:22:53Z</time>
      </trkpt>
      <trkpt lat="51.231624" lon="4.502296">
        <ele>7.6</ele>
        <time>2020-07-17T18:22:57Z</time>
      </trkpt>
      <trkpt lat="51.231648" lon="4.502168">
        <ele>7.7</ele>
        <time>2020-07-17T18:23:00Z</time>
      </trkpt>
      <trkpt lat="51.231628" lon="4.502036">
        <ele>7.8</ele>
        <time>2020-07-17T18:23:03Z</time>
      </trkpt>
      <trkpt lat="51.231534" lon="4.502012">
        <ele>7.8</ele>
        <time>2020-07-17T18:23:06Z</time>
      </trkpt>
      <trkpt lat="51.23144" lon="4.501993">
        <ele>7.7</ele>
        <time>2020-07-17T18:23:10Z</time>
      </trkpt>
      <trkpt lat="51.231353" lon="4.501934">
        <ele>7.6</ele>
        <time>2020-07-17T18:23:13Z</time>
      </trkpt>
      <trkpt lat="51.23128" lon="4.501834">
        <ele>7.5</ele>
        <time>2020-07-17T18:23:16Z</time>
      </trkpt>
      <trkpt lat="51.231264" lon="4.501686">
        <ele>7.5</ele>
        <time>2020-07-17T18:23:20Z</time>
      </trkpt>
      <trkpt lat="51.231234" lon="4.501549">
        <ele>7.5</ele>
        <time>2020-07-17T18:23:24Z</time>
      </trkpt>
      <trkpt lat="51.231187" lon="4.501422">
        <ele>7.4</ele>
        <time>2020-07-17T18:23:27Z</time>
      </trkpt>
      <trkpt lat="51.231131" lon="4.501306">
        <ele>7.3</ele>
        <time>2020-07-17T18:23:30Z</time>
      </trkpt>
      <trkpt lat="51.231065" lon="4.501201">
        <ele>7.2</ele>
        <time>2020-07-17T18:23:33Z</time>
      </trkpt>
      <trkpt lat="51.230987" lon="4.501112">
        <ele>7.1</ele>
        <time>2020-07-17T18:23:36Z</time>
      </trkpt>
      <trkpt lat="51.230927" lon="4.501026">
        <ele>7</ele>
        <time>2020-07-17T18:23:39Z</time>
      </trkpt>
      <trkpt lat="51.230888" lon="4.500878">
        <ele>7</ele>
        <time>2020-07-17T18:23:44Z</time>
      </trkpt>
      <trkpt lat="51.23083" lon="4.500732">
        <ele>7</ele>
        <time>2020-07-17T18:23:48Z</time>
      </trkpt>
      <trkpt lat="51.23077" lon="4.500632">
        <ele>6.9</ele>
        <time>2020-07-17T18:23:51Z</time>
      </trkpt>
      <trkpt lat="51.230702" lon="4.500524">
        <ele>6.8</ele>
        <time>2020-07-17T18:23:55Z</time>
      </trkpt>
      <trkpt lat="51.230637" lon="4.500405">
        <ele>6.7</ele>
        <time>2020-07-17T18:23:59Z</time>
      </trkpt>
      <trkpt lat="51.230585" lon="4.500268">
        <ele>6.5</ele>
        <time>2020-07-17T18:24:04Z</time>
      </trkpt>
      <trkpt lat="51.230521" lon="4.500182">
        <ele>6.3</ele>
        <time>2020-07-17T18:24:07Z</time>
      </trkpt>
      <trkpt lat="51.23045" lon="4.500108">
        <ele>6</ele>
        <time>2020-07-17T18:24:09Z</time>
      </trkpt>
      <trkpt lat="51.230351" lon="4.500006">
        <ele>5.8</ele>
        <time>2020-07-17T18:24:12Z</time>
      </trkpt>
      <trkpt lat="51.230283" lon="4.499931">
        <ele>5.6</ele>
        <time>2020-07-17T18:24:15Z</time>
      </trkpt>
      <trkpt lat="51.230228" lon="4.4998">
        <ele>5.5</ele>
        <time>2020-07-17T18:24:20Z</time>
      </trkpt>
      <trkpt lat="51.230196" lon="4.499681">
        <ele>5.4</ele>
        <time>2020-07-17T18:24:25Z</time>
      </trkpt>
      <trkpt lat="51.230123" lon="4.499597">
        <ele>5.3</ele>
        <time>2020-07-17T18:24:28Z</time>
      </trkpt>
      <trkpt lat="51.230035" lon="4.499525">
        <ele>5.4</ele>
        <time>2020-07-17T18:24:31Z</time>
      </trkpt>
      <trkpt lat="51.229944" lon="4.499458">
        <ele>5.5</ele>
        <time>2020-07-17T18:24:35Z</time>
      </trkpt>
      <trkpt lat="51.229857" lon="4.499344">
        <ele>5.6</ele>
        <time>2020-07-17T18:24:39Z</time>
      </trkpt>
      <trkpt lat="51.229791" lon="4.499252">
        <ele>5.8</ele>
        <time>2020-07-17T18:24:42Z</time>
      </trkpt>
      <trkpt lat="51.229734" lon="4.499159">
        <ele>6</ele>
        <time>2020-07-17T18:24:46Z</time>
      </trkpt>
      <trkpt lat="51.22967" lon="4.499072">
        <ele>6.1</ele>
        <time>2020-07-17T18:24:49Z</time>
      </trkpt>
      <trkpt lat="51.229601" lon="4.498971">
        <ele>6</ele>
        <time>2020-07-17T18:24:52Z</time>
      </trkpt>
      <trkpt lat="51.229508" lon="4.498912">
        <ele>5.9</ele>
        <time>2020-07-17T18:24:56Z</time>
      </trkpt>
      <trkpt lat="51.229442" lon="4.498816">
        <ele>5.7</ele>
        <time>2020-07-17T18:25:01Z</time>
      </trkpt>
      <trkpt lat="51.229355" lon="4.498756">
        <ele>5.5</ele>
        <time>2020-07-17T18:25:04Z</time>
      </trkpt>
      <trkpt lat="51.229283" lon="4.498681">
        <ele>5.2</ele>
        <time>2020-07-17T18:25:07Z</time>
      </trkpt>
      <trkpt lat="51.229209" lon="4.49861">
        <ele>4.8</ele>
        <time>2020-07-17T18:25:10Z</time>
      </trkpt>
      <trkpt lat="51.229126" lon="4.498508">
        <ele>4.5</ele>
        <time>2020-07-17T18:25:14Z</time>
      </trkpt>
      <trkpt lat="51.229067" lon="4.498411">
        <ele>4</ele>
        <time>2020-07-17T18:25:20Z</time>
      </trkpt>
      <trkpt lat="51.228985" lon="4.498331">
        <ele>3.6</ele>
        <time>2020-07-17T18:25:24Z</time>
      </trkpt>
      <trkpt lat="51.228877" lon="4.498275">
        <ele>3.5</ele>
        <time>2020-07-17T18:25:28Z</time>
      </trkpt>
      <trkpt lat="51.228781" lon="4.498188">
        <ele>3.4</ele>
        <time>2020-07-17T18:25:32Z</time>
      </trkpt>
      <trkpt lat="51.228696" lon="4.498083">
        <ele>3.4</ele>
        <time>2020-07-17T18:25:34Z</time>
      </trkpt>
      <trkpt lat="51.228616" lon="4.498011">
        <ele>3.4</ele>
        <time>2020-07-17T18:25:38Z</time>
      </trkpt>
      <trkpt lat="51.228519" lon="4.497955">
        <ele>3.5</ele>
        <time>2020-07-17T18:25:42Z</time>
      </trkpt>
      <trkpt lat="51.228439" lon="4.497901">
        <ele>3.6</ele>
        <time>2020-07-17T18:25:46Z</time>
      </trkpt>
      <trkpt lat="51.228374" lon="4.49782">
        <ele>3.7</ele>
        <time>2020-07-17T18:25:50Z</time>
      </trkpt>
      <trkpt lat="51.228296" lon="4.497747">
        <ele>3.8</ele>
        <time>2020-07-17T18:25:54Z</time>
      </trkpt>
      <trkpt lat="51.228221" lon="4.497693">
        <ele>3.8</ele>
        <time>2020-07-17T18:25:57Z</time>
      </trkpt>
      <trkpt lat="51.228127" lon="4.497644">
        <ele>3.8</ele>
        <time>2020-07-17T18:26:00Z</time>
      </trkpt>
      <trkpt lat="51.228038" lon="4.497581">
        <ele>3.7</ele>
        <time>2020-07-17T18:26:05Z</time>
      </trkpt>
      <trkpt lat="51.227945" lon="4.497555">
        <ele>3.5</ele>
        <time>2020-07-17T18:26:09Z</time>
      </trkpt>
      <trkpt lat="51.22786" lon="4.497511">
        <ele>3.4</ele>
        <time>2020-07-17T18:26:12Z</time>
      </trkpt>
      <trkpt lat="51.227781" lon="4.497459">
        <ele>3.2</ele>
        <time>2020-07-17T18:26:15Z</time>
      </trkpt>
      <trkpt lat="51.227687" lon="4.497415">
        <ele>3</ele>
        <time>2020-07-17T18:26:18Z</time>
      </trkpt>
      <trkpt lat="51.227605" lon="4.497415">
        <ele>2.8</ele>
        <time>2020-07-17T18:26:22Z</time>
      </trkpt>
      <trkpt lat="51.227505" lon="4.497375">
        <ele>2.6</ele>
        <time>2020-07-17T18:26:26Z</time>
      </trkpt>
      <trkpt lat="51.22742" lon="4.497364">
        <ele>2.5</ele>
        <time>2020-07-17T18:26:29Z</time>
      </trkpt>
      <trkpt lat="51.227335" lon="4.497329">
        <ele>2.5</ele>
        <time>2020-07-17T18:26:32Z</time>
      </trkpt>
      <trkpt lat="51.227238" lon="4.497304">
        <ele>2.5</ele>
        <time>2020-07-17T18:26:36Z</time>
      </trkpt>
      <trkpt lat="51.227159" lon="4.497259">
        <ele>2.7</ele>
        <time>2020-07-17T18:26:39Z</time>
      </trkpt>
      <trkpt lat="51.227058" lon="4.497221">
        <ele>2.9</ele>
        <time>2020-07-17T18:26:43Z</time>
      </trkpt>
      <trkpt lat="51.226976" lon="4.497183">
        <ele>3.1</ele>
        <time>2020-07-17T18:26:46Z</time>
      </trkpt>
      <trkpt lat="51.226887" lon="4.497168">
        <ele>3.3</ele>
        <time>2020-07-17T18:26:49Z</time>
      </trkpt>
      <trkpt lat="51.226795" lon="4.497174">
        <ele>3.4</ele>
        <time>2020-07-17T18:26:53Z</time>
      </trkpt>
      <trkpt lat="51.226685" lon="4.497152">
        <ele>3.5</ele>
        <time>2020-07-17T18:26:57Z</time>
      </trkpt>
      <trkpt lat="51.226603" lon="4.497125">
        <ele>3.5</ele>
        <time>2020-07-17T18:27:00Z</time>
      </trkpt>
      <trkpt lat="51.226506" lon="4.497099">
        <ele>3.6</ele>
        <time>2020-07-17T18:27:04Z</time>
      </trkpt>
      <trkpt lat="51.226425" lon="4.497066">
        <ele>3.7</ele>
        <time>2020-07-17T18:27:07Z</time>
      </trkpt>
      <trkpt lat="51.226318" lon="4.497039">
        <ele>3.8</ele>
        <time>2020-07-17T18:27:11Z</time>
      </trkpt>
      <trkpt lat="51.226215" lon="4.497029">
        <ele>3.7</ele>
        <time>2020-07-17T18:27:15Z</time>
      </trkpt>
      <trkpt lat="51.226133" lon="4.497014">
        <ele>3.5</ele>
        <time>2020-07-17T18:27:18Z</time>
      </trkpt>
    </trkseg>
  </trk>
</gpx>